Time;durP1;ratioP1;P1;durP2;ratioP2;P2;SDS_P1;SDS_P2;PMS_P1;PMS_P2;Temp;Humidity;BMP_temperature;BMP_pressure;BME280_temperature;BME280_humidity;BME280_pressure;Samples;Min_cycle;Max_cycle;Signal;HPM_P1;HPM_P2
2021/03/07 00:00:11;;;;;;;16.02;10.65;;;;;;;;;;5091666;28;20040;-44
2021/03/07 00:02:37;;;;;;;22.35;9.90;;;;;;;;;;5092203;28;20043;-45
2021/03/07 00:05:03;;;;;;;21.77;10.05;;;;;;;;;;5092067;28;20032;-44
2021/03/07 00:07:29;;;;;;;18.70;10.02;;;;;;;;;;5091710;28;20111;-51
2021/03/07 00:09:54;;;;;;;19.40;11.93;;;;;;;;;;5091606;28;20111;-50
2021/03/07 00:12:19;;;;;;;22.35;11.60;;;;;;;;;;5090668;28;20085;-50
2021/03/07 00:14:44;;;;;;;17.67;13.48;;;;;;;;;;5091907;28;20032;-56
2021/03/07 00:17:10;;;;;;;33.88;14.98;;;;;;;;;;5090911;28;20035;-47
2021/03/07 00:19:35;;;;;;;21.75;15.27;;;;;;;;;;5091988;28;20044;-48
2021/03/07 00:22:00;;;;;;;24.55;18.30;;;;;;;;;;5092016;28;20023;-47
2021/03/07 00:24:26;;;;;;;12.70;10.10;;;;;;;;;;5091417;28;20566;-45
2021/03/07 00:26:51;;;;;;;30.73;13.48;;;;;;;;;;5091212;28;20480;-50
2021/03/07 00:29:16;;;;;;;17.55;14.80;;;;;;;;;;5091486;28;20093;-49
2021/03/07 00:31:42;;;;;;;22.40;11.70;;;;;;;;;;5090594;28;20062;-44
2021/03/07 00:34:07;;;;;;;11.38;7.72;;;;;;;;;;5090928;28;20350;-46
2021/03/07 00:36:32;;;;;;;22.85;16.17;;;;;;;;;;5091042;28;20423;-49
2021/03/07 00:38:57;;;;;;;25.33;16.75;;;;;;;;;;5091308;28;20028;-45
2021/03/07 00:41:23;;;;;;;35.75;15.05;;;;;;;;;;5091071;28;20392;-45
2021/03/07 00:43:48;;;;;;;24.60;12.02;;;;;;;;;;5090828;28;20102;-45
2021/03/07 00:46:14;;;;;;;32.22;17.90;;;;;;;;;;5091270;28;20091;-44
2021/03/07 00:48:39;;;;;;;25.27;14.63;;;;;;;;;;5091071;28;20383;-45
2021/03/07 00:51:04;;;;;;;30.55;11.52;;;;;;;;;;5091107;28;20404;-49
2021/03/07 00:53:30;;;;;;;21.33;12.77;;;;;;;;;;5089558;28;20031;-52
2021/03/07 00:55:55;;;;;;;28.95;12.63;;;;;;;;;;5091131;28;20028;-45
2021/03/07 00:58:20;;;;;;;10.45;8.15;;;;;;;;;;5090817;28;20078;-45
2021/03/07 01:00:47;;;;;;;30.55;10.15;;;;;;;;;;5091110;28;20115;-49
2021/03/07 01:03:13;;;;;;;22.27;8.77;;;;;;;;;;5089366;28;20024;-44
2021/03/07 01:05:39;;;;;;;20.13;8.00;;;;;;;;;;5091001;28;20024;-44
2021/03/07 01:08:04;;;;;;;16.63;9.32;;;;;;;;;;5090735;28;20075;-47
2021/03/07 01:10:32;;;;;;;21.88;9.23;;;;;;;;;;5089543;28;20086;-50
2021/03/07 01:12:58;;;;;;;18.80;10.45;;;;;;;;;;5090882;28;20099;-46
2021/03/07 01:15:29;;;;;;;30.33;9.88;;;;;;;;;;5090841;28;20419;-46
2021/03/07 01:17:55;;;;;;;12.07;7.88;;;;;;;;;;5090315;28;20127;-48
2021/03/07 01:20:21;;;;;;;15.07;10.10;;;;;;;;;;5090237;28;20155;-46
2021/03/07 01:22:46;;;;;;;18.33;11.15;;;;;;;;;;5090964;28;20024;-47
2021/03/07 01:25:12;;;;;;;19.60;9.80;;;;;;;;;;5088079;28;20036;-52
2021/03/07 01:27:37;;;;;;;20.48;10.45;;;;;;;;;;5090390;28;20028;-49
2021/03/07 01:30:09;;;;;;;21.33;11.30;;;;;;;;;;5090614;28;20039;-44
2021/03/07 01:32:35;;;;;;;17.48;9.27;;;;;;;;;;5090226;28;20373;-46
2021/03/07 01:35:01;;;;;;;15.57;8.90;;;;;;;;;;5090436;28;20028;-48
2021/03/07 01:37:26;;;;;;;22.95;11.75;;;;;;;;;;5089745;28;20024;-43
2021/03/07 01:39:53;;;;;;;11.45;8.02;;;;;;;;;;5090516;28;20032;-45
2021/03/07 01:42:18;;;;;;;14.20;9.63;;;;;;;;;;5090319;28;20049;-48
2021/03/07 01:44:44;;;;;;;10.40;8.48;;;;;;;;;;5090198;28;20066;-45
2021/03/07 01:47:13;;;;;;;17.65;8.20;;;;;;;;;;5089764;28;20059;-44
2021/03/07 01:49:39;;;;;;;19.42;10.23;;;;;;;;;;5090449;28;20039;-46
2021/03/07 01:52:04;;;;;;;16.75;9.95;;;;;;;;;;5089745;28;20016;-46
2021/03/07 01:54:30;;;;;;;17.10;10.13;;;;;;;;;;5090125;28;20024;-52
2021/03/07 01:56:55;;;;;;;22.35;9.25;;;;;;;;;;5090103;28;20031;-44
2021/03/07 01:59:21;;;;;;;19.25;7.65;;;;;;;;;;5090028;28;20047;-46
2021/03/07 02:01:48;;;;;;;17.63;9.05;;;;;;;;;;5090119;28;20105;-55
2021/03/07 02:04:13;;;;;;;21.15;11.75;;;;;;;;;;5089876;28;20047;-44
2021/03/07 02:06:39;;;;;;;16.25;9.52;;;;;;;;;;5090013;28;20024;-43
2021/03/07 02:09:04;;;;;;;13.80;8.60;;;;;;;;;;5089887;28;20032;-49
2021/03/07 02:11:30;;;;;;;29.00;8.10;;;;;;;;;;5089008;28;20023;-48
2021/03/07 02:13:56;;;;;;;25.23;8.80;;;;;;;;;;5090235;28;20054;-43
2021/03/07 02:16:23;;;;;;;13.30;9.77;;;;;;;;;;5089680;28;20482;-48
2021/03/07 02:18:50;;;;;;;16.35;9.20;;;;;;;;;;5090054;28;20457;-49
2021/03/07 02:21:21;;;;;;;17.92;9.57;;;;;;;;;;5089917;28;20410;-49
2021/03/07 02:23:46;;;;;;;;;;;;;;;;;;5089508;28;20028;-44
2021/03/07 02:26:12;;;;;;;13.00;8.48;;;;;;;;;;5090059;28;19911;-52
2021/03/07 02:28:37;;;;;;;14.40;10.27;;;;;;;;;;5089648;28;20500;-50
2021/03/07 02:31:02;;;;;;;12.60;8.43;;;;;;;;;;5089480;28;20472;-46
2021/03/07 02:33:36;;;;;;;12.15;8.55;;;;;;;;;;5089416;28;20044;-50
2021/03/07 02:36:03;;;;;;;14.57;8.20;;;;;;;;;;5091461;28;20073;-50
2021/03/07 02:38:31;;;;;;;15.65;9.13;;;;;;;;;;5093958;28;20112;-44
2021/03/07 02:40:57;;;;;;;14.25;9.70;;;;;;;;;;5093685;28;20062;-45
2021/03/07 02:43:22;;;;;;;17.00;9.13;;;;;;;;;;5093231;28;20035;-46
2021/03/07 02:45:48;;;;;;;25.95;9.85;;;;;;;;;;5093574;28;20030;-47
2021/03/07 02:48:16;;;;;;;15.02;8.77;;;;;;;;;;5093035;28;20032;-44
2021/03/07 02:50:42;;;;;;;17.48;10.20;;;;;;;;;;5093380;28;20101;-50
2021/03/07 02:53:10;;;;;;;11.85;8.93;;;;;;;;;;5093348;28;20047;-45
2021/03/07 02:55:37;;;;;;;10.57;7.88;;;;;;;;;;5093444;28;20024;-43
2021/03/07 02:58:07;;;;;;;17.80;10.77;;;;;;;;;;5093199;28;20024;-47
2021/03/07 03:00:33;;;;;;;22.10;10.02;;;;;;;;;;5093213;28;20028;-47
2021/03/07 03:03:00;;;;;;;13.02;9.18;;;;;;;;;;5093123;28;20016;-45
2021/03/07 03:05:25;;;;;;;24.35;9.52;;;;;;;;;;5093079;28;20350;-46
2021/03/07 03:07:51;;;;;;;9.00;7.30;;;;;;;;;;5092659;28;20058;-45
2021/03/07 03:10:18;;;;;;;16.80;9.40;;;;;;;;;;5093111;28;20505;-48
2021/03/07 03:12:44;;;;;;;21.23;10.55;;;;;;;;;;5092986;28;20022;-43
2021/03/07 03:15:10;;;;;;;20.10;8.70;;;;;;;;;;5092490;28;20077;-44
2021/03/07 03:17:36;;;;;;;19.00;8.90;;;;;;;;;;5092928;28;20028;-46
2021/03/07 03:20:04;;;;;;;21.20;10.30;;;;;;;;;;5092794;28;20060;-47
2021/03/07 03:22:29;;;;;;;11.77;10.57;;;;;;;;;;5092568;28;20133;-49
2021/03/07 03:24:55;;;;;;;17.70;10.40;;;;;;;;;;5092655;28;20230;-46
2021/03/07 03:27:20;;;;;;;15.60;10.32;;;;;;;;;;5092883;28;20070;-49
2021/03/07 03:29:45;;;;;;;20.17;10.68;;;;;;;;;;5092813;28;20391;-48
2021/03/07 03:32:11;;;;;;;24.40;9.65;;;;;;;;;;5092588;28;20107;-46
2021/03/07 03:34:36;;;;;;;28.02;9.93;;;;;;;;;;5092356;28;20069;-45
2021/03/07 03:37:02;;;;;;;24.02;10.52;;;;;;;;;;5092234;28;20573;-45
2021/03/07 03:39:28;;;;;;;14.82;9.95;;;;;;;;;;5092397;28;20365;-44
2021/03/07 03:42:00;;;;;;;11.82;9.18;;;;;;;;;;5091821;28;20110;-47
2021/03/07 03:44:31;;;;;;;20.95;8.40;;;;;;;;;;5092107;28;20052;-48
2021/03/07 03:46:57;;;;;;;10.13;8.68;;;;;;;;;;5091307;28;20066;-50
2021/03/07 03:49:28;;;;;;;16.77;11.73;;;;;;;;;;5092212;28;20055;-49
2021/03/07 03:51:58;;;;;;;19.63;9.30;;;;;;;;;;5091951;28;20060;-46
2021/03/07 03:54:25;;;;;;;19.08;8.88;;;;;;;;;;5091623;28;20053;-51
2021/03/07 03:56:51;;;;;;;13.07;10.38;;;;;;;;;;5092080;28;20036;-44
2021/03/07 03:59:18;;;;;;;16.10;10.52;;;;;;;;;;5091566;28;20020;-48
2021/03/07 04:01:44;;;;;;;10.93;8.73;;;;;;;;;;5092239;28;20032;-47
2021/03/07 04:04:10;;;;;;;9.48;7.40;;;;;;;;;;5092004;28;20111;-47
2021/03/07 04:06:35;;;;;;;11.05;7.63;;;;;;;;;;5090050;28;20115;-46
2021/03/07 04:09:02;;;;;;;10.52;7.90;;;;;;;;;;5091861;28;20346;-49
2021/03/07 04:11:27;;;;;;;11.48;7.75;;;;;;;;;;5091878;28;20031;-48
2021/03/07 04:13:54;;;;;;;19.88;8.40;;;;;;;;;;5091768;28;20024;-45
2021/03/07 04:16:19;;;;;;;17.73;7.03;;;;;;;;;;5090209;28;20032;-50
2021/03/07 04:18:45;;;;;;;16.63;8.15;;;;;;;;;;5091310;28;20064;-55
2021/03/07 04:21:11;;;;;;;13.30;8.27;;;;;;;;;;5090967;28;20480;-44
2021/03/07 04:23:37;;;;;;;15.52;9.20;;;;;;;;;;5091532;28;20020;-44
2021/03/07 04:26:03;;;;;;;17.95;10.05;;;;;;;;;;5091114;28;20028;-44
2021/03/07 04:28:28;;;;;;;27.70;8.75;;;;;;;;;;5091479;28;20040;-46
2021/03/07 04:30:53;;;;;;;21.90;8.82;;;;;;;;;;5091458;28;20468;-44
2021/03/07 04:33:19;;;;;;;12.10;7.50;;;;;;;;;;5090866;28;20516;-49
2021/03/07 04:35:44;;;;;;;13.82;8.23;;;;;;;;;;5091481;28;20016;-54
2021/03/07 04:38:10;;;;;;;12.63;7.15;;;;;;;;;;5090955;28;20444;-45
2021/03/07 04:40:36;;;;;;;15.20;6.88;;;;;;;;;;5091067;28;20035;-47
2021/03/07 04:43:02;;;;;;;12.68;8.20;;;;;;;;;;5091023;28;20043;-49
2021/03/07 04:45:28;;;;;;;13.10;7.43;;;;;;;;;;5089787;28;20028;-47
2021/03/07 04:47:53;;;;;;;17.08;11.65;;;;;;;;;;5090974;28;20618;-49
2021/03/07 04:50:18;;;;;;;15.35;11.45;;;;;;;;;;5091155;28;20059;-47
2021/03/07 04:52:44;;;;;;;13.15;8.75;;;;;;;;;;5091077;28;20081;-42
2021/03/07 04:55:10;;;;;;;19.95;10.48;;;;;;;;;;5090987;28;20413;-47
2021/03/07 04:57:35;;;;;;;10.35;8.07;;;;;;;;;;5091032;28;20039;-48
2021/03/07 05:00:01;;;;;;;15.05;8.43;;;;;;;;;;5090698;28;20036;-46
2021/03/07 05:02:27;;;;;;;20.45;8.27;;;;;;;;;;5090980;28;20020;-47
2021/03/07 05:04:52;;;;;;;9.23;7.78;;;;;;;;;;5090651;28;20036;-46
2021/03/07 05:07:17;;;;;;;12.75;7.43;;;;;;;;;;5090443;28;20032;-48
2021/03/07 05:09:43;;;;;;;7.85;6.68;;;;;;;;;;5090947;28;20031;-46
2021/03/07 05:12:08;;;;;;;11.57;7.80;;;;;;;;;;5090393;28;20027;-49
2021/03/07 05:14:33;;;;;;;18.83;7.88;;;;;;;;;;5090403;28;20028;-45
2021/03/07 05:16:59;;;;;;;13.35;7.85;;;;;;;;;;5090438;28;20032;-44
2021/03/07 05:19:24;;;;;;;13.02;6.95;;;;;;;;;;5090113;28;20091;-45
2021/03/07 05:21:49;;;;;;;13.35;7.78;;;;;;;;;;5090348;28;20023;-48
2021/03/07 05:24:15;;;;;;;12.88;9.23;;;;;;;;;;5090834;28;20070;-53
2021/03/07 05:26:40;;;;;;;15.70;10.48;;;;;;;;;;5090322;28;20024;-51
2021/03/07 05:29:05;;;;;;;21.67;9.65;;;;;;;;;;5090522;28;20032;-53
2021/03/07 05:31:31;;;;;;;15.27;10.15;;;;;;;;;;5089562;28;20718;-50
2021/03/07 05:33:56;;;;;;;19.20;7.80;;;;;;;;;;5090219;28;20388;-48
2021/03/07 05:36:21;;;;;;;12.57;8.18;;;;;;;;;;5089722;28;20429;-47
2021/03/07 05:38:47;;;;;;;19.38;9.45;;;;;;;;;;5089877;28;20032;-49
2021/03/07 05:41:13;;;;;;;10.02;7.00;;;;;;;;;;5088012;28;20031;-53
2021/03/07 05:43:38;;;;;;;14.55;9.65;;;;;;;;;;5090029;28;20073;-44
2021/03/07 05:46:04;;;;;;;21.80;8.77;;;;;;;;;;5090074;28;20095;-50
2021/03/07 05:48:29;;;;;;;19.60;10.43;;;;;;;;;;5089904;28;20048;-46
2021/03/07 05:50:55;;;;;;;21.10;8.10;;;;;;;;;;5089882;28;20053;-44
2021/03/07 05:53:21;;;;;;;12.18;8.63;;;;;;;;;;5089866;28;20060;-45
2021/03/07 05:55:46;;;;;;;23.45;9.07;;;;;;;;;;5089719;28;20435;-44
2021/03/07 05:58:12;;;;;;;9.68;7.85;;;;;;;;;;5089932;28;20031;-45
2021/03/07 06:00:38;;;;;;;16.15;6.28;;;;;;;;;;5089740;28;20024;-47
2021/03/07 06:03:03;;;;;;;13.55;7.97;;;;;;;;;;5088826;28;20057;-54
2021/03/07 06:05:28;;;;;;;11.23;7.95;;;;;;;;;;5089897;28;20097;-46
2021/03/07 06:07:54;;;;;;;26.10;8.40;;;;;;;;;;5089336;28;20054;-50
2021/03/07 06:10:19;;;;;;;12.65;9.77;;;;;;;;;;5090476;28;20465;-50
2021/03/07 06:12:56;;;;;;;17.13;9.35;;;;;;;;;;5094241;28;20016;-52
2021/03/07 06:15:22;;;;;;;21.05;9.48;;;;;;;;;;5094117;28;20048;-49
2021/03/07 06:17:47;;;;;;;15.98;11.65;;;;;;;;;;5094062;28;20035;-53
2021/03/07 06:20:14;;;;;;;22.90;11.65;;;;;;;;;;5093988;28;20064;-50
2021/03/07 06:22:40;;;;;;;15.88;13.10;;;;;;;;;;5093702;28;20030;-44
2021/03/07 06:25:11;;;;;;;37.65;14.68;;;;;;;;;;5092349;28;20070;-46
2021/03/07 06:27:36;;;;;;;31.30;15.07;;;;;;;;;;5094088;28;20468;-53
2021/03/07 06:30:05;;;;;;;20.15;14.73;;;;;;;;;;5092732;28;20077;-48
2021/03/07 06:32:34;;;;;;;22.50;14.23;;;;;;;;;;5093795;28;20059;-46
2021/03/07 06:35:00;;;;;;;37.38;12.60;;;;;;;;;;5092137;28;20465;-49
2021/03/07 06:37:26;;;;;;;19.52;12.77;;;;;;;;;;5093722;28;20028;-45
2021/03/07 06:39:51;;;;;;;30.33;14.55;;;;;;;;;;5093428;28;20040;-43
2021/03/07 06:42:17;;;;;;;28.67;13.55;;;;;;;;;;5093400;28;20368;-46
2021/03/07 06:44:51;;;;;;;20.65;13.75;;;;;;;;;;5093079;28;20722;-45
2021/03/07 06:47:17;;;;;;;19.50;14.80;;;;;;;;;;5093188;28;20050;-46
2021/03/07 06:49:42;;;;;;;15.63;11.13;;;;;;;;;;5093683;28;20096;-45
2021/03/07 06:52:13;;;;;;;16.45;10.98;;;;;;;;;;5093236;28;20021;-47
2021/03/07 06:54:38;;;;;;;;;;;;;;;;;;5093924;28;20024;-45
2021/03/07 06:57:04;;;;;;;20.77;12.73;;;;;;;;;;5093122;28;20835;-47
2021/03/07 06:59:30;;;;;;;27.55;14.52;;;;;;;;;;5093317;28;20609;-44
2021/03/07 07:01:56;;;;;;;18.77;13.02;;;;;;;;;;5093161;28;20024;-45
2021/03/07 07:04:22;;;;;;;19.60;14.45;;;;;;;;;;5092964;28;20036;-44
2021/03/07 07:07:06;;;;;;;21.73;14.15;;;;;;;;;;5092483;28;20477;-50
2021/03/07 07:09:32;;;;;;;17.67;12.55;;;;;;;;;;5093088;28;20078;-44
2021/03/07 07:11:58;;;;;;;29.05;21.38;;;;;;;;;;5092750;28;20408;-44
2021/03/07 07:14:34;;;;;;;29.65;15.25;;;;;;;;;;5092958;28;20024;-43
2021/03/07 07:17:00;;;;;;;31.10;20.75;;;;;;;;;;5092960;28;20129;-47
2021/03/07 07:19:25;;;;;;;28.38;20.52;;;;;;;;;;5091480;28;20124;-44
2021/03/07 07:21:50;;;;;;;43.58;26.73;;;;;;;;;;5092138;28;20461;-43
2021/03/07 07:24:16;;;;;;;24.15;20.00;;;;;;;;;;5092441;28;20079;-44
2021/03/07 07:26:43;;;;;;;27.38;16.02;;;;;;;;;;5092610;28;20047;-44
2021/03/07 07:29:08;;;;;;;17.73;15.82;;;;;;;;;;5090299;28;20039;-45
2021/03/07 07:31:55;;;;;;;21.77;15.15;;;;;;;;;;5092454;28;20483;-44
2021/03/07 07:34:25;;;;;;;29.27;18.10;;;;;;;;;;5091057;28;20508;-44
2021/03/07 07:36:52;;;;;;;25.98;20.20;;;;;;;;;;5092135;28;20473;-44
2021/03/07 07:39:28;;;;;;;25.45;20.10;;;;;;;;;;5092362;28;20028;-49
2021/03/07 07:41:54;;;;;;;26.95;19.02;;;;;;;;;;5092234;28;20043;-49
2021/03/07 07:44:30;;;;;;;31.60;18.42;;;;;;;;;;5092218;28;20377;-44
2021/03/07 07:47:02;;;;;;;26.95;20.60;;;;;;;;;;5091748;28;20086;-47
2021/03/07 07:49:57;;;;;;;41.58;21.02;;;;;;;;;;5092226;28;20373;-48
2021/03/07 07:52:30;;;;;;;44.38;22.98;;;;;;;;;;5078624;28;20040;-45
2021/03/07 07:54:59;;;;;;;32.00;20.20;;;;;;;;;;5091767;28;20024;-43
2021/03/07 07:57:37;;;;;;;37.22;23.20;;;;;;;;;;5091709;28;20437;-45
2021/03/07 08:00:04;;;;;;;25.13;17.98;;;;;;;;;;5092014;28;20012;-48
2021/03/07 08:02:41;;;;;;;31.08;15.10;;;;;;;;;;5091677;28;20111;-50
2021/03/07 08:05:28;;;;;;;18.38;12.52;;;;;;;;;;5091685;28;20028;-46
2021/03/07 08:07:54;;;;;;;12.73;11.40;;;;;;;;;;5076814;28;20055;-52
2021/03/07 08:10:47;;;;;;;29.90;11.82;;;;;;;;;;5090455;28;20028;-49
2021/03/07 08:13:13;;;;;;;15.77;11.23;;;;;;;;;;5091417;28;20028;-48
2021/03/07 08:15:45;;;;;;;16.75;12.10;;;;;;;;;;5091646;28;20529;-49
2021/03/07 08:18:11;;;;;;;14.95;12.00;;;;;;;;;;5091676;28;20054;-48
2021/03/07 08:20:40;;;;;;;23.50;11.15;;;;;;;;;;5091790;28;20059;-47
2021/03/07 08:23:12;;;;;;;19.77;10.80;;;;;;;;;;5091414;28;20016;-50
2021/03/07 08:25:50;;;;;;;20.42;12.25;;;;;;;;;;5090699;28;20023;-45
2021/03/07 08:28:28;;;;;;;20.05;15.00;;;;;;;;;;5091379;28;20036;-50
2021/03/07 08:31:01;;;;;;;14.27;10.07;;;;;;;;;;5091411;28;20020;-45
2021/03/07 08:33:27;;;;;;;21.15;9.57;;;;;;;;;;5090346;28;20119;-46
2021/03/07 08:36:11;;;;;;;26.17;14.02;;;;;;;;;;5091121;28;20032;-49
2021/03/07 08:38:57;;;;;;;13.60;7.10;;;;;;;;;;5091251;28;20036;-46
2021/03/07 08:41:23;;;;;;;20.60;11.63;;;;;;;;;;5076546;28;20044;-48
2021/03/07 08:43:49;;;;;;;13.40;10.82;;;;;;;;;;5090933;28;20115;-51
2021/03/07 08:46:14;;;;;;;15.18;7.28;;;;;;;;;;5091057;28;20056;-50
2021/03/07 08:48:47;;;;;;;11.88;10.73;;;;;;;;;;5091010;28;20507;-46
2021/03/07 08:51:13;;;;;;;25.33;9.35;;;;;;;;;;5090708;28;20036;-55
2021/03/07 08:53:42;;;;;;;16.38;13.30;;;;;;;;;;5091250;28;20027;-45
2021/03/07 08:56:08;;;;;;;26.25;19.52;;;;;;;;;;5091113;28;20032;-46
2021/03/07 08:58:34;;;;;;;15.00;6.90;;;;;;;;;;5090793;28;20381;-46
2021/03/07 09:01:00;;;;;;;8.43;6.07;;;;;;;;;;5090430;28;20024;-49
2021/03/07 09:03:25;;;;;;;14.45;7.88;;;;;;;;;;5090839;28;20027;-47
2021/03/07 09:05:51;;;;;;;8.32;4.90;;;;;;;;;;5090203;28;20023;-45
2021/03/07 09:08:34;;;;;;;9.35;6.85;;;;;;;;;;5090215;28;20028;-47
2021/03/07 09:11:00;;;;;;;11.30;6.47;;;;;;;;;;5090283;28;20087;-51
2021/03/07 09:13:26;;;;;;;8.48;5.57;;;;;;;;;;5090090;28;20471;-48
2021/03/07 09:15:53;;;;;;;14.10;7.65;;;;;;;;;;5090621;28;20019;-43
2021/03/07 09:18:19;;;;;;;18.83;6.40;;;;;;;;;;5090243;28;20035;-50
2021/03/07 09:20:46;;;;;;;13.80;8.38;;;;;;;;;;5090564;28;20131;-47
2021/03/07 09:23:30;;;;;;;19.98;13.35;;;;;;;;;;5088844;28;20024;-51
2021/03/07 09:25:56;;;;;;;11.73;6.80;;;;;;;;;;5090273;28;20097;-45
2021/03/07 09:28:48;;;;;;;20.48;8.23;;;;;;;;;;5089978;28;20044;-46
2021/03/07 09:31:16;;;;;;;26.15;6.22;;;;;;;;;;5085508;28;20081;-48
2021/03/07 09:33:47;;;;;;;18.45;8.38;;;;;;;;;;5090348;28;20074;-47
2021/03/07 09:36:13;;;;;;;11.25;6.85;;;;;;;;;;5089825;28;20020;-50
2021/03/07 09:38:43;;;;;;;9.32;6.70;;;;;;;;;;5090274;28;20082;-45
2021/03/07 09:41:09;;;;;;;12.40;7.72;;;;;;;;;;5089924;28;20027;-46
2021/03/07 09:43:35;;;;;;;13.00;8.30;;;;;;;;;;5088386;28;20119;-46
2021/03/07 09:46:01;;;;;;;12.15;7.43;;;;;;;;;;5089777;28;20134;-50
2021/03/07 09:48:28;;;;;;;16.35;8.23;;;;;;;;;;5089838;28;20652;-45
2021/03/07 09:50:54;;;;;;;11.10;7.88;;;;;;;;;;5089889;28;20133;-46
2021/03/07 09:53:20;;;;;;;11.82;7.35;;;;;;;;;;5089680;28;20465;-44
2021/03/07 09:55:45;;;;;;;35.28;7.63;;;;;;;;;;5089399;28;20027;-55
2021/03/07 09:58:11;;;;;;;10.18;8.43;;;;;;;;;;5089374;28;20465;-48
2021/03/07 10:00:38;;;;;;;19.30;9.65;;;;;;;;;;5090003;28;20078;-44
2021/03/07 10:03:16;;;;;;;18.15;9.45;;;;;;;;;;5089827;28;20127;-49
2021/03/07 10:05:41;;;;;;;23.52;11.02;;;;;;;;;;5090166;28;20457;-43
2021/03/07 10:08:20;;;;;;;10.35;7.88;;;;;;;;;;5089179;28;20032;-44
2021/03/07 10:10:46;;;;;;;17.48;8.95;;;;;;;;;;5090177;28;20024;-47
2021/03/07 10:13:15;;;;;;;22.08;9.88;;;;;;;;;;5089475;28;20144;-43
2021/03/07 10:15:41;;;;;;;13.60;9.55;;;;;;;;;;5089983;28;20020;-44
2021/03/07 10:18:12;;;;;;;18.27;11.50;;;;;;;;;;5089686;28;20103;-48
2021/03/07 10:20:37;;;;;;;;;;;;;;;;;;5090154;28;20040;-44
2021/03/07 10:23:03;;;;;;;18.65;8.93;;;;;;;;;;5089632;28;20347;-47
2021/03/07 10:25:29;;;;;;;17.63;9.65;;;;;;;;;;5089243;28;20032;-47
2021/03/07 10:27:56;;;;;;;17.40;8.55;;;;;;;;;;5089056;28;20380;-45
2021/03/07 10:30:32;;;;;;;15.82;9.40;;;;;;;;;;5089757;28;20182;-49
2021/03/07 10:33:10;;;;;;;9.88;7.28;;;;;;;;;;5089732;28;20063;-48
2021/03/07 10:35:36;;;;;;;11.52;8.45;;;;;;;;;;5089471;28;20465;-52
2021/03/07 10:38:01;;;;;;;19.60;7.47;;;;;;;;;;5089303;28;20034;-50
2021/03/07 10:40:30;;;;;;;14.27;9.98;;;;;;;;;;5088106;28;20028;-43
2021/03/07 10:43:00;;;;;;;12.45;7.47;;;;;;;;;;5089314;28;20020;-44
2021/03/07 10:45:25;;;;;;;18.50;7.70;;;;;;;;;;5089447;28;20040;-43
2021/03/07 10:48:10;;;;;;;9.25;8.38;;;;;;;;;;5089231;28;20108;-44
2021/03/07 10:50:36;;;;;;;23.40;8.38;;;;;;;;;;5089590;28;20042;-46
2021/03/07 10:53:01;;;;;;;17.00;9.20;;;;;;;;;;5089060;28;20024;-46
2021/03/07 10:55:27;;;;;;;25.25;10.75;;;;;;;;;;5089653;28;20028;-50
2021/03/07 10:57:52;;;;;;;29.30;8.20;;;;;;;;;;5091843;28;20042;-45
2021/03/07 11:00:18;;;;;;;10.70;8.75;;;;;;;;;;5091640;28;20765;-54
2021/03/07 11:02:44;;;;;;;13.57;10.32;;;;;;;;;;5092554;28;20025;-44
2021/03/07 11:05:13;;;;;;;12.95;9.45;;;;;;;;;;5091898;28;20063;-49
2021/03/07 11:07:39;;;;;;;13.45;7.68;;;;;;;;;;5092314;28;20036;-49
2021/03/07 11:10:08;;;;;;;20.45;7.78;;;;;;;;;;5092606;28;20745;-51
2021/03/07 11:12:33;;;;;;;20.95;9.68;;;;;;;;;;5092374;28;20032;-50
2021/03/07 11:14:59;;;;;;;18.10;8.75;;;;;;;;;;5092436;28;20085;-49
2021/03/07 11:17:24;;;;;;;10.52;8.68;;;;;;;;;;5092248;28;20028;-49
2021/03/07 11:19:49;;;;;;;10.07;6.97;;;;;;;;;;5091993;28;20524;-50
2021/03/07 11:22:15;;;;;;;8.85;8.00;;;;;;;;;;5091971;28;20026;-48
2021/03/07 11:24:40;;;;;;;14.13;8.23;;;;;;;;;;5092190;28;20028;-49
2021/03/07 11:27:06;;;;;;;9.63;7.70;;;;;;;;;;5091889;28;20460;-53
2021/03/07 11:29:31;;;;;;;10.68;7.82;;;;;;;;;;5092120;28;20085;-52
2021/03/07 11:31:56;;;;;;;11.75;6.65;;;;;;;;;;5091952;28;20028;-48
2021/03/07 11:34:22;;;;;;;9.55;6.78;;;;;;;;;;5090764;28;20102;-47
2021/03/07 11:36:47;;;;;;;22.17;7.32;;;;;;;;;;5091413;28;20020;-49
2021/03/07 11:39:12;;;;;;;10.18;6.82;;;;;;;;;;5089495;28;20032;-48
2021/03/07 11:41:37;;;;;;;16.30;4.20;;;;;;;;;;5091950;28;20647;-47
2021/03/07 11:44:03;;;;;;;7.78;6.20;;;;;;;;;;5091784;28;20040;-45
2021/03/07 11:46:28;;;;;;;12.90;7.15;;;;;;;;;;5092033;28;20031;-46
2021/03/07 11:48:54;;;;;;;10.40;6.35;;;;;;;;;;5091612;28;20040;-45
2021/03/07 11:51:19;;;;;;;9.13;7.25;;;;;;;;;;5091178;28;20517;-47
2021/03/07 11:53:44;;;;;;;8.90;7.15;;;;;;;;;;5091001;28;20377;-44
2021/03/07 11:56:10;;;;;;;9.82;3.58;;;;;;;;;;5091163;28;20156;-46
2021/03/07 11:58:35;;;;;;;7.82;4.93;;;;;;;;;;5090092;28;20032;-49
2021/03/07 12:01:00;;;;;;;6.35;5.13;;;;;;;;;;5091668;28;20138;-51
2021/03/07 12:03:25;;;;;;;13.20;7.38;;;;;;;;;;5091700;28;20045;-44
2021/03/07 12:05:51;;;;;;;20.77;12.55;;;;;;;;;;5090821;28;20035;-44
2021/03/07 12:08:16;;;;;;;13.18;9.35;;;;;;;;;;5089457;28;20032;-49
2021/03/07 12:10:41;;;;;;;11.25;9.48;;;;;;;;;;5091867;28;20055;-49
2021/03/07 12:13:07;;;;;;;8.88;7.07;;;;;;;;;;5091310;28;20396;-48
2021/03/07 12:15:32;;;;;;;18.48;11.82;;;;;;;;;;5091593;28;20031;-44
2021/03/07 12:17:57;;;;;;;24.67;12.63;;;;;;;;;;5091176;28;20024;-48
2021/03/07 12:20:24;;;;;;;23.52;13.20;;;;;;;;;;5090370;28;20467;-45
2021/03/07 12:22:49;;;;;;;24.10;11.15;;;;;;;;;;5090659;28;20026;-48
2021/03/07 12:25:15;;;;;;;27.70;16.08;;;;;;;;;;5091412;28;20036;-45
2021/03/07 12:27:40;;;;;;;34.60;21.33;;;;;;;;;;5091142;28;20115;-45
2021/03/07 12:30:06;;;;;;;20.00;14.93;;;;;;;;;;5091146;28;20028;-48
2021/03/07 12:32:31;;;;;;;23.80;11.57;;;;;;;;;;5090718;28;20040;-49
2021/03/07 12:34:57;;;;;;;30.60;18.35;;;;;;;;;;5090583;28;20027;-47
2021/03/07 12:37:22;;;;;;;32.50;18.90;;;;;;;;;;5090843;28;20036;-48
2021/03/07 12:39:47;;;;;;;28.50;19.17;;;;;;;;;;5091071;28;20516;-54
2021/03/07 12:42:13;;;;;;;32.40;22.75;;;;;;;;;;5090880;28;20377;-44
2021/03/07 12:44:38;;;;;;;33.42;17.60;;;;;;;;;;5090156;28;20048;-49
2021/03/07 12:47:03;;;;;;;19.88;13.52;;;;;;;;;;5090512;28;20399;-52
2021/03/07 12:49:29;;;;;;;19.45;17.52;;;;;;;;;;5090583;28;20036;-53
2021/03/07 12:51:54;;;;;;;12.20;10.93;;;;;;;;;;5090386;28;20022;-50
2021/03/07 12:54:19;;;;;;;21.70;16.20;;;;;;;;;;5090827;28;20522;-49
2021/03/07 12:56:45;;;;;;;27.15;20.52;;;;;;;;;;5091042;28;20457;-49
2021/03/07 12:59:11;;;;;;;29.85;17.70;;;;;;;;;;5090259;28;20028;-48
2021/03/07 13:01:36;;;;;;;16.50;14.90;;;;;;;;;;5090411;28;20023;-44
2021/03/07 13:04:01;;;;;;;19.60;16.90;;;;;;;;;;5089926;28;20039;-47
2021/03/07 13:06:27;;;;;;;26.05;15.40;;;;;;;;;;5089751;28;20024;-44
2021/03/07 13:08:52;;;;;;;33.20;19.95;;;;;;;;;;5089423;28;20044;-47
2021/03/07 13:11:18;;;;;;;33.65;17.00;;;;;;;;;;5090072;28;20051;-51
2021/03/07 13:13:43;;;;;;;31.73;17.45;;;;;;;;;;5089982;28;20115;-44
2021/03/07 13:16:08;;;;;;;22.08;12.55;;;;;;;;;;5089836;28;20023;-47
2021/03/07 13:18:34;;;;;;;18.23;14.32;;;;;;;;;;5089847;28;20024;-49
2021/03/07 13:20:59;;;;;;;16.10;10.85;;;;;;;;;;5089139;28;20100;-44
2021/03/07 13:23:25;;;;;;;15.00;10.80;;;;;;;;;;5089677;28;20376;-45
2021/03/07 13:25:50;;;;;;;15.40;10.50;;;;;;;;;;5089459;28;20614;-45
2021/03/07 13:28:16;;;;;;;20.15;10.77;;;;;;;;;;5089188;28;20043;-48
2021/03/07 13:30:41;;;;;;;19.50;12.77;;;;;;;;;;5089887;28;20475;-45
2021/03/07 13:33:07;;;;;;;41.78;17.58;;;;;;;;;;5089586;28;20024;-50
2021/03/07 13:35:34;;;;;;;20.27;13.90;;;;;;;;;;5089918;28;20465;-48
2021/03/07 13:37:59;;;;;;;14.70;11.00;;;;;;;;;;5089454;28;20382;-45
2021/03/07 13:40:25;;;;;;;19.73;11.63;;;;;;;;;;5089867;28;20028;-45
2021/03/07 13:42:50;;;;;;;30.67;11.30;;;;;;;;;;5089206;28;20024;-43
2021/03/07 13:45:15;;;;;;;17.02;10.90;;;;;;;;;;5089343;28;20024;-50
2021/03/07 13:47:41;;;;;;;33.92;11.50;;;;;;;;;;5089569;28;20535;-46
2021/03/07 13:50:07;;;;;;;21.20;11.05;;;;;;;;;;5089625;28;20576;-49
2021/03/07 13:52:32;;;;;;;13.15;11.50;;;;;;;;;;5084925;28;20058;-47
2021/03/07 13:54:57;;;;;;;22.58;13.40;;;;;;;;;;5089721;28;20086;-44
2021/03/07 13:57:22;;;;;;;15.75;12.10;;;;;;;;;;5088865;28;20032;-44
2021/03/07 13:59:48;;;;;;;15.90;10.98;;;;;;;;;;5090159;28;20060;-50
2021/03/07 14:02:13;;;;;;;12.52;10.27;;;;;;;;;;5089080;28;20024;-48
2021/03/07 14:04:38;;;;;;;13.20;11.73;;;;;;;;;;5085137;28;20031;-45
2021/03/07 14:07:04;;;;;;;18.33;12.65;;;;;;;;;;5089131;28;20023;-48
2021/03/07 14:09:29;;;;;;;37.65;17.10;;;;;;;;;;5087490;28;20070;-50
2021/03/07 14:11:54;;;;;;;17.77;14.70;;;;;;;;;;5089014;28;20037;-44
2021/03/07 14:14:20;;;;;;;30.42;16.02;;;;;;;;;;5089424;28;20032;-48
2021/03/07 14:16:45;;;;;;;16.25;14.23;;;;;;;;;;5089381;28;20028;-47
2021/03/07 14:19:10;;;;;;;19.58;11.95;;;;;;;;;;5088576;28;20032;-45
2021/03/07 14:21:35;;;;;;;14.90;11.57;;;;;;;;;;5088980;28;20027;-45
2021/03/07 14:24:01;;;;;;;15.85;11.18;;;;;;;;;;5088073;28;20123;-47